NORTHEAST SUFFOLK  -  Winter Weather Advisory Winter Weather Advisory     Winter Weather Advisory Winter Weather Advisory        NORTHERN NASSAU  -  Winter Weather Advisory Winter Weather Advisory        NORTHWEST SUFFOLK  -  Winter Weather Advisory Winter Weather Advisory     Winter Weather Advisory Winter Weather Advisory        SOUTHEAST SUFFOLK  -  Winter Weather Advisory Winter Weather Advisory     Winter Weather Advisory Winter Weather Advisory        SOUTHERN NASSAU  -  Winter Weather Advisory Winter Weather Advisory        SOUTHWEST SUFFOLK  -  Winter Weather Advisory Winter Weather Advisory     Winter Weather Advisory Winter Weather Advisory      

Active alerts

Northern Nassau
  Details for Northern Nassau Winter Weather Advisory
Southern Nassau
  Details for Southern Nassau Winter Weather Advisory
Northwest Suffolk
  Details for Northwest Suffolk Winter Weather Advisory  +1 additional alert
Southwest Suffolk
  Details for Southwest Suffolk Winter Weather Advisory  +1 additional alert
Northeast Suffolk
  Details for Northeast Suffolk Winter Weather Advisory  +1 additional alert
Southeast Suffolk
  Details for Southeast Suffolk Winter Weather Advisory  +1 additional alert


WXM80 ListenWXM80 Stop

You find our weather info also at:

UK Metoffice

WeatherCloud

Weather Underground

Northeastern Weather Network

AWEKAS

Citizen Weather Observer Program (CWOP)

HAMweather, WeatherForYou, PWS Weather


Weather Underground History page Text

Daily Summary for May 20, 2017 Units:  English    Metric   Both
« Previous Day
Next Day »
Daily Weekly Monthly Yearly Custom
  High: Low: Average:
Temperature: 65.8 °F 52.1 °F 60.6 °F
Dew Point: 56.6 °F 42.5 °F 49.2 °F
Humidity: 81 % 44 % 67 %
Wind Speed: 9.6 mph 0.0 mph 3 mph
Wind Gust: 15.0 mph - -
Wind:- - ESE
Pressure: 30.31 in 30.01 in -
Precipitation: 0.01 in    
Historical Graphs
 
 
Tabular Data for May 20, 2017
Time Temperature Dew Point Pressure Wind Wind Speed Wind Gust Humidity Rainfall Rate (Hourly)
00:01 64.5 °F 56.0 °F 30.02 in North 3.7 mph 6.9 mph 74 % 0.00 in
00:06 64.3 °F 56.6 °F 30.02 in North 4.1 mph 8.1 mph 76 % 0.00 in
00:11 64.0 °F 55.9 °F 30.02 in NNE 5.4 mph 9.0 mph 75 % 0.00 in
00:16 63.6 °F 55.9 °F 30.01 in NNE 5.9 mph 8.0 mph 76 % 0.00 in
00:21 63.4 °F 55.7 °F 30.02 in NNE 6.7 mph 11.5 mph 76 % 0.00 in
00:26 63.2 °F 55.9 °F 30.02 in NNE 6.4 mph 10.4 mph 77 % 0.00 in
00:31 63.0 °F 55.7 °F 30.02 in NNE 5.9 mph 11.5 mph 77 % 0.00 in
00:39 62.8 °F 55.5 °F 30.02 in NNE 5.8 mph 10.4 mph 77 % 0.00 in
00:44 62.8 °F 55.8 °F 30.02 in NNE 8.9 mph 13.8 mph 78 % 0.00 in
00:49 62.8 °F 55.5 °F 30.03 in NNE 6.3 mph 12.7 mph 77 % 0.00 in
00:54 62.8 °F 55.5 °F 30.03 in NNE 6.4 mph 11.5 mph 77 % 0.00 in
00:59 62.7 °F 55.7 °F 30.02 in North 7.8 mph 11.5 mph 78 % 0.00 in
01:04 62.6 °F 55.3 °F 30.02 in North 7.1 mph 11.5 mph 77 % 0.00 in
01:09 62.6 °F 55.6 °F 30.02 in NNE 7.9 mph 11.5 mph 78 % 0.00 in
01:14 62.5 °F 55.5 °F 30.02 in NE 6.4 mph 11.5 mph 78 % 0.00 in
01:19 62.4 °F 55.4 °F 30.03 in North 6.4 mph 8.1 mph 78 % 0.00 in
01:25 62.3 °F 55.4 °F 30.03 in North 7.3 mph 9.2 mph 78 % 0.00 in
01:30 62.2 °F 55.3 °F 30.03 in North 5.6 mph 10.4 mph 78 % 0.00 in
01:35 62.0 °F 55.1 °F 30.03 in NNE 6.8 mph 9.2 mph 78 % 0.00 in
01:40 61.9 °F 55.3 °F 30.03 in NNE 9.0 mph 12.7 mph 79 % 0.00 in
01:45 61.8 °F 55.2 °F 30.04 in NNE 6.3 mph 11.5 mph 79 % 0.00 in
01:50 61.7 °F 55.5 °F 30.04 in NNE 6.8 mph 10.4 mph 80 % 0.00 in
01:55 61.6 °F 55.0 °F 30.04 in NNE 3.8 mph 8.1 mph 79 % 0.00 in
02:00 61.5 °F 55.3 °F 30.04 in NNE 6.1 mph 8.1 mph 80 % 0.00 in
02:05 61.4 °F 55.2 °F 30.04 in NE 4.5 mph 8.1 mph 80 % 0.00 in
02:08 61.4 °F 55.2 °F 30.04 in North 5.9 mph 9.2 mph 80 % 0.00 in
02:13 61.3 °F 55.1 °F 30.04 in North 6.1 mph 10.4 mph 80 % 0.00 in
02:15 61.3 °F 55.1 °F 30.04 in NNE 5.2 mph 8.1 mph 80 % 0.00 in
02:20 61.2 °F 55.0 °F 30.04 in North 6.3 mph 11.5 mph 80 % 0.00 in
02:21 61.1 °F 54.9 °F 30.04 in North 6.1 mph 11.5 mph 80 % 0.00 in
02:26 61.0 °F 54.8 °F 30.04 in North 3.9 mph 9.2 mph 80 % 0.00 in
02:31 60.9 °F 54.7 °F 30.05 in North 5.7 mph 9.2 mph 80 % 0.00 in
02:36 60.8 °F 54.6 °F 30.05 in NNW 6.3 mph 10.4 mph 80 % 0.00 in
02:41 60.7 °F 54.5 °F 30.06 in NNE 6.8 mph 10.4 mph 80 % 0.00 in
02:46 60.6 °F 54.7 °F 30.06 in ENE 1.7 mph 3.5 mph 81 % 0.00 in
02:51 60.6 °F 54.7 °F 30.06 in NE 3.9 mph 5.8 mph 81 % 0.00 in
02:56 60.6 °F 54.4 °F 30.06 in ENE 6.1 mph 13.8 mph 80 % 0.00 in
03:01 60.5 °F 54.0 °F 30.07 in NE 4.0 mph 9.2 mph 79 % 0.00 in
03:06 60.5 °F 54.0 °F 30.07 in NE 7.3 mph 11.5 mph 79 % 0.00 in
03:11 60.4 °F 53.5 °F 30.07 in ENE 9.2 mph 13.0 mph 78 % 0.00 in
03:16 60.3 °F 52.0 °F 30.07 in ENE 7.1 mph 11.5 mph 74 % 0.00 in
03:21 60.3 °F 50.9 °F 30.07 in ENE 8.0 mph 12.7 mph 71 % 0.00 in
03:26 60.4 °F 50.6 °F 30.07 in NNE 4.9 mph 11.5 mph 70 % 0.00 in
03:31 60.3 °F 50.5 °F 30.07 in NNE 4.1 mph 6.0 mph 70 % 0.00 in
03:36 60.3 °F 50.5 °F 30.08 in ENE 4.0 mph 8.1 mph 70 % 0.00 in
03:41 60.2 °F 50.8 °F 30.08 in NE 2.8 mph 11.5 mph 71 % 0.00 in
03:46 60.1 °F 51.0 °F 30.08 in NE 2.3 mph 3.5 mph 72 % 0.00 in
03:51 60.0 °F 50.9 °F 30.08 in NE 3.2 mph 5.8 mph 72 % 0.00 in
03:56 59.9 °F 49.3 °F 30.08 in East 7.2 mph 13.8 mph 68 % 0.00 in
04:01 59.8 °F 48.8 °F 30.09 in ENE 8.6 mph 12.7 mph 67 % 0.00 in
04:06 59.8 °F 48.8 °F 30.10 in ENE 8.7 mph 12.7 mph 67 % 0.00 in
04:11 59.8 °F 48.8 °F 30.10 in ENE 6.4 mph 10.0 mph 67 % 0.00 in
04:16 59.8 °F 48.0 °F 30.10 in ENE 8.7 mph 11.5 mph 65 % 0.00 in
04:22 59.8 °F 48.4 °F 30.10 in East 8.2 mph 12.7 mph 66 % 0.00 in
04:27 59.8 °F 48.0 °F 30.10 in ENE 8.2 mph 10.4 mph 65 % 0.00 in
04:32 59.8 °F 48.8 °F 30.10 in ESE 5.5 mph 11.5 mph 67 % 0.00 in
04:37 59.7 °F 48.7 °F 30.11 in ENE 7.5 mph 11.5 mph 67 % 0.00 in
04:42 59.6 °F 48.6 °F 30.11 in ENE 9.1 mph 15.0 mph 67 % 0.00 in
04:47 59.5 °F 48.1 °F 30.11 in ENE 6.6 mph 13.8 mph 66 % 0.00 in
04:52 59.5 °F 48.5 °F 30.11 in ENE 7.8 mph 13.8 mph 67 % 0.00 in
05:02 59.4 °F 48.8 °F 30.11 in ENE 7.9 mph 13.8 mph 68 % 0.00 in
05:07 59.3 °F 48.7 °F 30.11 in NE 6.3 mph 11.5 mph 68 % 0.00 in
05:12 59.2 °F 49.4 °F 30.12 in ENE 5.2 mph 8.1 mph 70 % 0.00 in
05:17 59.1 °F 49.3 °F 30.11 in ENE 5.7 mph 9.2 mph 70 % 0.00 in
05:22 58.9 °F 48.7 °F 30.12 in ENE 7.2 mph 11.5 mph 69 % 0.00 in
05:27 58.8 °F 48.6 °F 30.12 in NE 5.6 mph 10.4 mph 69 % 0.00 in
05:32 58.7 °F 48.9 °F 30.12 in NE 5.3 mph 9.2 mph 70 % 0.00 in
05:37 58.7 °F 48.9 °F 30.12 in ENE 4.6 mph 6.9 mph 70 % 0.00 in
05:42 58.6 °F 48.5 °F 30.13 in ENE 3.8 mph 11.5 mph 69 % 0.00 in
05:47 58.6 °F 48.8 °F 30.14 in ENE 7.1 mph 11.5 mph 70 % 0.00 in
05:52 58.5 °F 49.1 °F 30.14 in East 4.8 mph 13.8 mph 71 % 0.00 in
05:57 58.5 °F 49.1 °F 30.14 in NE 4.8 mph 9.2 mph 71 % 0.00 in
06:02 58.5 °F 48.7 °F 30.14 in East 4.9 mph 10.4 mph 70 % 0.00 in
06:07 58.6 °F 48.5 °F 30.14 in ENE 6.5 mph 8.0 mph 69 % 0.00 in
06:13 58.6 °F 48.8 °F 30.15 in ENE 3.2 mph 6.9 mph 70 % 0.00 in
06:18 58.7 °F 49.3 °F 30.15 in NE 2.2 mph 3.5 mph 71 % 0.00 in
06:23 58.7 °F 49.3 °F 30.15 in ENE 3.0 mph 8.1 mph 71 % 0.00 in
06:28 58.7 °F 48.9 °F 30.16 in ENE 4.1 mph 7.0 mph 70 % 0.00 in
06:33 58.7 °F 48.9 °F 30.17 in ENE 3.0 mph 4.6 mph 70 % 0.00 in
06:38 58.8 °F 49.4 °F 30.17 in NE 2.6 mph 4.6 mph 71 % 0.00 in
06:43 58.7 °F 49.3 °F 30.18 in NE 3.5 mph 5.0 mph 71 % 0.00 in
06:48 58.6 °F 48.8 °F 30.19 in NNE 4.4 mph 8.1 mph 70 % 0.00 in
06:53 58.5 °F 49.1 °F 30.19 in NE 3.2 mph 6.9 mph 71 % 0.00 in
06:58 58.5 °F 49.1 °F 30.19 in NNE 3.7 mph 7.0 mph 71 % 0.00 in
07:03 58.5 °F 49.1 °F 30.19 in NNE 2.7 mph 8.1 mph 71 % 0.00 in
07:08 58.5 °F 49.5 °F 30.19 in NNE 2.7 mph 4.6 mph 72 % 0.00 in
07:13 58.5 °F 49.5 °F 30.18 in NE 4.5 mph 9.2 mph 72 % 0.00 in
07:18 58.5 °F 48.4 °F 30.18 in ENE 5.0 mph 9.2 mph 69 % 0.00 in
07:23 58.6 °F 49.2 °F 30.18 in East 4.4 mph 9.0 mph 71 % 0.00 in
07:24 58.6 °F 49.2 °F 30.18 in NE 5.8 mph 9.2 mph 71 % 0.00 in
07:29 58.4 °F 49.4 °F 30.18 in NE 6.7 mph 11.5 mph 72 % 0.00 in
07:34 58.2 °F 49.6 °F 30.18 in ENE 5.4 mph 11.5 mph 73 % 0.01 in
07:39 57.9 °F 49.7 °F 30.18 in ENE 5.3 mph 10.4 mph 74 % 0.01 in
07:44 57.6 °F 50.1 °F 30.19 in NE 5.4 mph 8.1 mph 76 % 0.01 in
07:49 57.4 °F 49.5 °F 30.19 in ENE 5.9 mph 10.4 mph 75 % 0.01 in
07:54 57.3 °F 50.1 °F 30.19 in NE 5.7 mph 9.2 mph 77 % 0.01 in
07:59 57.3 °F 50.1 °F 30.19 in East 5.8 mph 8.1 mph 77 % 0.01 in
08:04 57.2 °F 49.3 °F 30.19 in ENE 4.9 mph 7.0 mph 75 % 0.01 in
08:09 57.2 °F 49.3 °F 30.19 in ENE 5.2 mph 9.2 mph 75 % 0.01 in
08:14 57.3 °F 49.4 °F 30.20 in ENE 4.6 mph 8.0 mph 75 % 0.01 in
08:19 57.5 °F 49.6 °F 30.20 in ENE 7.5 mph 10.4 mph 75 % 0.01 in
08:24 57.6 °F 49.4 °F 30.21 in ENE 7.5 mph 13.0 mph 74 % 0.01 in
08:29 57.7 °F 49.5 °F 30.20 in ENE 8.4 mph 11.5 mph 74 % 0.01 in
08:34 58.0 °F 49.8 °F 30.21 in ENE 7.3 mph 10.0 mph 74 % 0.00 in
08:39 58.2 °F 49.6 °F 30.21 in ENE 9.6 mph 13.0 mph 73 % 0.00 in
08:44 58.3 °F 49.7 °F 30.22 in ENE 7.2 mph 10.4 mph 73 % 0.00 in
08:49 58.5 °F 49.9 °F 30.21 in ENE 3.5 mph 9.2 mph 73 % 0.00 in
08:54 58.6 °F 50.0 °F 30.21 in ENE 7.0 mph 9.2 mph 73 % 0.00 in
08:59 58.6 °F 49.6 °F 30.21 in ENE 5.0 mph 8.1 mph 72 % 0.00 in
09:04 58.7 °F 49.3 °F 30.21 in ENE 6.8 mph 11.5 mph 71 % 0.00 in
09:09 58.8 °F 49.8 °F 30.22 in ENE 5.8 mph 9.2 mph 72 % 0.00 in
09:14 58.9 °F 49.9 °F 30.22 in ENE 4.7 mph 8.0 mph 72 % 0.00 in
09:19 59.1 °F 50.1 °F 30.23 in ENE 3.9 mph 6.9 mph 72 % 0.00 in
09:24 59.3 °F 49.9 °F 30.22 in ENE 4.7 mph 8.1 mph 71 % 0.00 in
09:29 59.5 °F 50.1 °F 30.22 in ENE 6.7 mph 10.4 mph 71 % 0.00 in
09:34 59.7 °F 49.9 °F 30.23 in ENE 6.0 mph 10.4 mph 70 % 0.00 in
09:39 60.0 °F 50.2 °F 30.24 in East 6.6 mph 8.1 mph 70 % 0.00 in
09:44 60.3 °F 50.1 °F 30.24 in ENE 6.1 mph 11.5 mph 69 % 0.00 in
09:49 60.5 °F 49.9 °F 30.24 in ENE 6.1 mph 10.4 mph 68 % 0.00 in
09:54 60.8 °F 50.2 °F 30.24 in ENE 5.4 mph 10.4 mph 68 % 0.00 in
10:00 61.0 °F 49.6 °F 30.24 in NE 7.3 mph 8.1 mph 66 % 0.00 in
10:05 61.0 °F 49.1 °F 30.24 in East 4.9 mph 10.4 mph 65 % 0.00 in
10:10 60.8 °F 49.8 °F 30.24 in ENE 7.4 mph 11.5 mph 67 % 0.00 in
10:15 60.9 °F 49.9 °F 30.24 in ENE 5.4 mph 8.1 mph 67 % 0.00 in
10:20 61.4 °F 51.1 °F 30.24 in East 4.0 mph 9.2 mph 69 % 0.00 in
10:25 62.2 °F 51.1 °F 30.25 in East 6.9 mph 11.5 mph 67 % 0.00 in
10:30 62.2 °F 51.1 °F 30.25 in NE 6.1 mph 11.5 mph 67 % 0.00 in
10:35 62.0 °F 50.9 °F 30.25 in ENE 6.2 mph 11.5 mph 67 % 0.00 in
10:40 61.8 °F 50.7 °F 30.25 in ENE 5.0 mph 8.1 mph 67 % 0.00 in
10:45 61.6 °F 51.3 °F 30.25 in ENE 3.2 mph 4.6 mph 69 % 0.00 in
10:50 61.6 °F 50.5 °F 30.25 in ENE 5.6 mph 9.0 mph 67 % 0.00 in
10:53 61.8 °F 51.1 °F 30.25 in ENE 4.7 mph 10.4 mph 68 % 0.00 in
10:58 62.4 °F 50.1 °F 30.25 in East 4.7 mph 8.1 mph 64 % 0.00 in
11:03 62.4 °F 49.6 °F 30.25 in ENE 5.4 mph 9.2 mph 63 % 0.00 in
11:08 62.6 °F 49.4 °F 30.25 in ENE 4.5 mph 8.1 mph 62 % 0.00 in
11:13 62.7 °F 49.5 °F 30.25 in ENE 4.4 mph 6.9 mph 62 % 0.00 in
11:18 62.7 °F 50.3 °F 30.25 in ENE 2.3 mph 3.5 mph 64 % 0.00 in
11:23 62.4 °F 48.3 °F 30.25 in ENE 2.4 mph 6.9 mph 60 % 0.00 in
11:28 62.0 °F 48.0 °F 30.25 in ENE 1.9 mph 3.5 mph 60 % 0.00 in
11:33 61.8 °F 48.2 °F 30.26 in ENE 2.7 mph 4.6 mph 61 % 0.00 in
11:38 61.4 °F 47.8 °F 30.26 in ENE 1.2 mph 2.3 mph 61 % 0.00 in
11:43 61.3 °F 48.2 °F 30.26 in ENE 1.2 mph 3.5 mph 62 % 0.00 in
11:48 61.4 °F 49.1 °F 30.25 in ENE 1.2 mph 3.0 mph 64 % 0.00 in
11:53 61.5 °F 48.4 °F 30.26 in ENE 1.5 mph 3.5 mph 62 % 0.00 in
11:58 61.6 °F 48.9 °F 30.25 in ENE 1.3 mph 2.3 mph 63 % 0.00 in
12:03 61.8 °F 48.2 °F 30.25 in ENE 1.2 mph 3.5 mph 61 % 0.00 in
12:08 61.9 °F 49.2 °F 30.25 in ENE 0.6 mph 2.3 mph 63 % 0.00 in
12:13 62.0 °F 48.8 °F 30.25 in ENE 0.9 mph 2.3 mph 62 % 0.00 in
12:18 62.0 °F 48.4 °F 30.25 in ENE 0.5 mph 2.3 mph 61 % 0.00 in
12:23 62.0 °F 48.8 °F 30.26 in ENE 1.2 mph 2.3 mph 62 % 0.00 in
12:28 61.9 °F 48.3 °F 30.26 in ENE 0.8 mph 3.5 mph 61 % 0.00 in
12:33 61.9 °F 49.2 °F 30.26 in ENE 0.6 mph 1.2 mph 63 % 0.00 in
12:38 61.9 °F 48.7 °F 30.25 in ENE 1.6 mph 4.6 mph 62 % 0.00 in
12:43 61.9 °F 48.7 °F 30.26 in ENE 1.5 mph 3.5 mph 62 % 0.00 in
12:48 61.8 °F 47.8 °F 30.26 in NE 2.6 mph 4.6 mph 60 % 0.00 in
12:53 61.7 °F 48.5 °F 30.26 in NE 1.0 mph 3.5 mph 62 % 0.00 in
12:58 61.7 °F 47.7 °F 30.26 in ENE 1.3 mph 3.5 mph 60 % 0.00 in
13:03 61.7 °F 49.4 °F 30.26 in ENE 0.3 mph 1.0 mph 64 % 0.00 in
13:08 61.7 °F 48.5 °F 30.26 in ENE 1.5 mph 3.5 mph 62 % 0.00 in
13:13 61.8 °F 49.5 °F 30.26 in ENE 0.1 mph 1.2 mph 64 % 0.00 in
13:18 61.7 °F 49.0 °F 30.26 in Calm   1.2 mph 63 % 0.00 in
13:24 61.8 °F 49.1 °F 30.26 in NE 0.2 mph 1.0 mph 63 % 0.00 in
13:29 61.9 °F 49.2 °F 30.26 in Calm   1.2 mph 63 % 0.00 in
13:34 62.0 °F 49.3 °F 30.25 in Calm   1.2 mph 63 % 0.00 in
13:39 62.1 °F 48.5 °F 30.25 in Calm   3.5 mph 61 % 0.00 in
13:44 62.3 °F 49.1 °F 30.26 in SSE 0.5 mph 4.6 mph 62 % 0.00 in
13:49 62.6 °F 49.8 °F 30.26 in SSE 0.1 mph 1.2 mph 63 % 0.00 in
13:54 62.7 °F 47.7 °F 30.26 in SSE 0.5 mph 2.3 mph 58 % 0.00 in
13:59 62.8 °F 47.3 °F 30.25 in Calm   1.2 mph 57 % 0.00 in
14:04 63.0 °F 48.4 °F 30.25 in SSE 0.3 mph 2.0 mph 59 % 0.00 in
14:09 63.0 °F 46.6 °F 30.25 in SSE 0.2 mph 1.2 mph 55 % 0.00 in
14:14 63.0 °F 46.6 °F 30.26 in Calm   1.2 mph 55 % 0.00 in
14:19 63.0 °F 46.1 °F 30.26 in SE 1.6 mph 4.6 mph 54 % 0.00 in
14:24 63.0 °F 46.1 °F 30.26 in SE 0.1 mph 1.2 mph 54 % 0.00 in
14:29 63.1 °F 47.1 °F 30.25 in Calm   1.2 mph 56 % 0.00 in
14:34 63.2 °F 47.2 °F 30.26 in Calm   1.2 mph 56 % 0.00 in
14:39 63.3 °F 46.9 °F 30.26 in Calm   1.2 mph 55 % 0.00 in
14:44 63.4 °F 46.9 °F 30.26 in SE 0.7 mph 2.0 mph 55 % 0.00 in
14:49 63.5 °F 46.6 °F 30.26 in Calm   2.3 mph 54 % 0.00 in
14:54 63.8 °F 47.3 °F 30.26 in SE 2.5 mph 3.5 mph 55 % 0.00 in
14:59 64.0 °F 47.0 °F 30.26 in Calm     54 % 0.00 in
15:04 64.3 °F 47.3 °F 30.26 in East 0.4 mph 1.2 mph 54 % 0.00 in
15:09 64.4 °F 47.4 °F 30.26 in ENE 0.8 mph 3.0 mph 54 % 0.00 in
15:14 64.4 °F 48.4 °F 30.26 in Calm   1.0 mph 56 % 0.00 in
15:19 64.5 °F 47.5 °F 30.26 in ENE 0.4 mph 2.3 mph 54 % 0.00 in
15:24 64.4 °F 47.4 °F 30.26 in ENE 0.3 mph 1.0 mph 54 % 0.00 in
15:29 64.4 °F 45.9 °F 30.25 in ENE 0.1 mph 1.2 mph 51 % 0.00 in
15:34 64.5 °F 48.4 °F 30.26 in Calm     56 % 0.00 in
15:39 64.6 °F 45.0 °F 30.26 in Calm     49 % 0.00 in
15:44 64.7 °F 45.1 °F 30.26 in Calm     49 % 0.00 in
15:49 64.7 °F 45.1 °F 30.25 in ESE 0.1 mph 2.3 mph 49 % 0.00 in
15:54 64.8 °F 46.2 °F 30.25 in Calm   1.2 mph 51 % 0.00 in
15:59 64.9 °F 45.8 °F 30.25 in Calm     50 % 0.00 in
16:04 65.0 °F 42.5 °F 30.25 in ESE 1.4 mph 3.5 mph 44 % 0.00 in
16:09 65.1 °F 45.5 °F 30.25 in Calm     49 % 0.00 in
16:14 65.2 °F 43.9 °F 30.25 in Calm     46 % 0.00 in
16:19 65.3 °F 44.5 °F 30.25 in ESE 0.8 mph 2.3 mph 47 % 0.00 in
16:24 65.4 °F 45.7 °F 30.25 in Calm     49 % 0.00 in
16:29 65.3 °F 45.6 °F 30.25 in SSE 0.6 mph 2.3 mph 49 % 0.00 in
16:34 65.3 °F 46.7 °F 30.25 in Calm     51 % 0.00 in
16:39 65.3 °F 45.6 °F 30.25 in SW 0.1 mph 1.2 mph 49 % 0.00 in
16:44 65.4 °F 46.3 °F 30.25 in SW 0.1 mph 1.2 mph 50 % 0.00 in
16:49 65.4 °F 47.8 °F 30.26 in Calm   1.2 mph 53 % 0.00 in
16:54 65.5 °F 48.4 °F 30.25 in SW 0.8 mph 2.3 mph 54 % 0.00 in
16:59 65.5 °F 48.4 °F 30.25 in West 2.5 mph 3.5 mph 54 % 0.00 in
17:04 65.6 °F 47.0 °F 30.25 in West 0.5 mph 2.3 mph 51 % 0.00 in
17:09 65.7 °F 48.6 °F 30.25 in West 0.4 mph 3.5 mph 54 % 0.00 in
17:14 65.8 °F 48.7 °F 30.25 in West 1.4 mph 4.0 mph 54 % 0.00 in
17:19 65.8 °F 48.2 °F 30.25 in West 0.9 mph 3.5 mph 53 % 0.00 in
17:24 65.8 °F 48.2 °F 30.25 in WNW 1.5 mph 3.5 mph 53 % 0.00 in
17:30 65.8 °F 48.2 °F 30.25 in WNW 0.6 mph 3.5 mph 53 % 0.00 in
17:35 65.8 °F 48.7 °F 30.25 in WNW 1.1 mph 2.3 mph 54 % 0.00 in
17:40 65.8 °F 48.7 °F 30.25 in WNW 0.8 mph 3.5 mph 54 % 0.00 in
17:45 65.8 °F 48.7 °F 30.25 in WNW 0.5 mph 2.3 mph 54 % 0.00 in
17:50 65.8 °F 48.7 °F 30.25 in WNW 0.8 mph 2.3 mph 54 % 0.00 in
17:55 65.8 °F 49.2 °F 30.25 in WSW 2.9 mph 4.0 mph 55 % 0.00 in
18:00 65.8 °F 47.7 °F 30.24 in Calm     52 % 0.00 in
18:05 65.8 °F 48.2 °F 30.24 in SW 1.7 mph 3.5 mph 53 % 0.00 in
18:10 65.7 °F 48.6 °F 30.24 in WNW 2.1 mph 3.5 mph 54 % 0.00 in
18:15 65.6 °F 47.5 °F 30.24 in WSW 1.3 mph 3.5 mph 52 % 0.00 in
18:20 65.5 °F 48.4 °F 30.24 in WSW 0.7 mph 2.3 mph 54 % 0.00 in
18:25 65.4 °F 48.8 °F 30.24 in Calm     55 % 0.00 in
18:30 65.3 °F 49.2 °F 30.24 in Calm   1.0 mph 56 % 0.00 in
18:35 65.1 °F 49.5 °F 30.24 in WSW 0.2 mph 1.2 mph 57 % 0.00 in
18:40 65.0 °F 49.9 °F 30.24 in SW 0.6 mph 3.0 mph 58 % 0.00 in
18:45 64.6 °F 49.0 °F 30.24 in Calm   1.2 mph 57 % 0.00 in
18:50 64.4 °F 49.3 °F 30.24 in SW 1.4 mph 3.5 mph 58 % 0.00 in
18:55 64.2 °F 49.1 °F 30.25 in SSE 1.4 mph 3.0 mph 58 % 0.00 in
19:00 63.9 °F 48.8 °F 30.25 in SW 0.1 mph 3.5 mph 58 % 0.00 in
19:06 63.6 °F 48.1 °F 30.25 in Calm   4.0 mph 57 % 0.00 in
19:11 63.3 °F 48.7 °F 30.25 in SSW 0.3 mph 2.3 mph 59 % 0.00 in
19:16 63.1 °F 48.5 °F 30.25 in Calm   2.0 mph 59 % 0.00 in
19:21 62.9 °F 48.8 °F 30.25 in SSW 1.0 mph 4.0 mph 60 % 0.00 in
19:26 62.5 °F 48.5 °F 30.25 in SW 1.0 mph 4.0 mph 60 % 0.00 in
19:31 62.2 °F 48.2 °F 30.25 in Calm   3.0 mph 60 % 0.00 in
19:36 61.9 °F 47.9 °F 30.25 in Calm   4.0 mph 60 % 0.00 in
19:41 61.6 °F 48.0 °F 30.25 in Calm   2.0 mph 61 % 0.00 in
19:46 61.3 °F 47.7 °F 30.25 in Calm   3.0 mph 61 % 0.00 in
19:51 61.0 °F 47.9 °F 30.25 in Calm   1.0 mph 62 % 0.00 in
19:56 60.6 °F 48.0 °F 30.25 in Calm   5.0 mph 63 % 0.00 in
20:01 60.3 °F 47.6 °F 30.25 in Calm   1.2 mph 63 % 0.00 in
20:06 59.9 °F 47.3 °F 30.25 in WSW 0.2 mph 1.2 mph 63 % 0.00 in
20:11 59.6 °F 47.4 °F 30.26 in Calm   1.2 mph 64 % 0.00 in
20:16 59.3 °F 47.5 °F 30.26 in Calm   1.2 mph 65 % 0.00 in
20:21 58.9 °F 47.2 °F 30.26 in Calm     65 % 0.00 in
20:26 58.6 °F 47.3 °F 30.26 in Calm   2.3 mph 66 % 0.00 in
20:31 58.2 °F 46.9 °F 30.26 in Calm   1.2 mph 66 % 0.00 in
20:36 57.9 °F 47.0 °F 30.26 in SW 0.6 mph 2.3 mph 67 % 0.00 in
20:41 57.6 °F 46.7 °F 30.26 in SW 0.5 mph 2.3 mph 67 % 0.00 in
20:46 57.3 °F 46.8 °F 30.26 in SW 0.1 mph 1.2 mph 68 % 0.00 in
20:51 57.0 °F 46.5 °F 30.26 in SW 0.3 mph 1.2 mph 68 % 0.00 in
20:56 56.8 °F 46.3 °F 30.27 in SW 0.3 mph 2.3 mph 68 % 0.00 in
21:01 56.5 °F 46.4 °F 30.27 in SW 0.1 mph   69 % 0.00 in
21:06 56.4 °F 46.4 °F 30.27 in SW 0.1 mph 1.2 mph 69 % 0.00 in
21:12 56.2 °F 46.2 °F 30.27 in SW 0.3 mph 2.3 mph 69 % 0.00 in
21:17 55.9 °F 46.3 °F 30.27 in Calm   3.5 mph 70 % 0.00 in
21:22 55.8 °F 46.2 °F 30.27 in Calm   1.2 mph 70 % 0.00 in
21:27 55.7 °F 46.1 °F 30.27 in SSW 0.2 mph 1.2 mph 70 % 0.00 in
21:32 55.4 °F 46.2 °F 30.27 in SE 0.1 mph 1.2 mph 71 % 0.00 in
21:37 55.3 °F 46.1 °F 30.27 in Calm   1.2 mph 71 % 0.00 in
21:42 55.1 °F 45.9 °F 30.28 in Calm     71 % 0.00 in
21:47 54.9 °F 46.0 °F 30.28 in Calm     72 % 0.00 in
21:52 54.8 °F 45.9 °F 30.28 in Calm   1.2 mph 72 % 0.00 in
21:57 54.6 °F 46.1 °F 30.28 in ESE 0.3 mph 1.2 mph 73 % 0.00 in
22:02 54.5 °F 46.0 °F 30.28 in SE 0.2 mph 1.2 mph 73 % 0.00 in
22:07 54.4 °F 45.9 °F 30.28 in SE 0.3 mph 4.6 mph 73 % 0.00 in
22:12 54.2 °F 45.7 °F 30.28 in SE 0.2 mph 1.2 mph 73 % 0.00 in
22:17 54.1 °F 46.0 °F 30.28 in SE 0.4 mph 1.2 mph 74 % 0.00 in
22:22 54.1 °F 46.0 °F 30.28 in Calm   1.2 mph 74 % 0.00 in
22:27 54.0 °F 46.3 °F 30.28 in SE 0.2 mph 1.2 mph 75 % 0.00 in
22:32 53.9 °F 46.2 °F 30.28 in Calm     75 % 0.00 in
22:37 53.8 °F 46.4 °F 30.28 in SSE 0.1 mph 5.8 mph 76 % 0.00 in
22:42 53.7 °F 46.3 °F 30.28 in Calm     76 % 0.00 in
22:47 53.6 °F 46.2 °F 30.28 in SSE 0.2 mph 2.3 mph 76 % 0.00 in
22:52 53.5 °F 46.1 °F 30.28 in Calm     76 % 0.00 in
22:57 53.5 °F 46.1 °F 30.29 in SSW 0.1 mph   76 % 0.00 in
23:02 53.4 °F 46.0 °F 30.29 in West 0.2 mph 2.3 mph 76 % 0.00 in
23:07 53.3 °F 45.9 °F 30.29 in West 0.5 mph 2.3 mph 76 % 0.00 in
23:12 53.2 °F 45.8 °F 30.30 in West 0.2 mph 2.0 mph 76 % 0.00 in
23:17 53.1 °F 46.1 °F 30.29 in West 0.6 mph 3.5 mph 77 % 0.00 in
23:22 52.9 °F 45.9 °F 30.30 in Calm     77 % 0.00 in
23:28 52.8 °F 45.8 °F 30.30 in West 1.1 mph 1.2 mph 77 % 0.00 in
23:33 52.7 °F 46.0 °F 30.30 in West 1.0 mph 2.3 mph 78 % 0.00 in
23:38 52.6 °F 45.9 °F 30.31 in West 0.2 mph 1.2 mph 78 % 0.00 in
23:43 52.5 °F 46.2 °F 30.31 in West 1.3 mph 2.3 mph 79 % 0.00 in
23:48 52.3 °F 46.0 °F 30.31 in West 0.1 mph 1.2 mph 79 % 0.00 in
23:53 52.3 °F 46.0 °F 30.30 in West 0.4 mph   79 % 0.00 in
23:58 52.1 °F 45.8 °F 30.31 in Calm     79 % 0.00 in
Crab Meadow Weather
Compliments of Weather Underground - 3 mb

Script developed by  Jim McMurry - jmcmurry@mwt.net Adapted for the template by  Wim van der Kuil - Leuven-Template.eu

Weather Terms: Dew Point - A measure of atmospheric moisture. It is the temperature to which air must be cooled in order to reach saturation (assuming pressure and moisture content are constant).